Time;durP1;ratioP1;P1;durP2;ratioP2;P2;SDS_P1;SDS_P2;PMS_P1;PMS_P2;Temp;Humidity;BMP_temperature;BMP_pressure;BME280_temperature;BME280_humidity;BME280_pressure;Samples;Min_cycle;Max_cycle;Signal;HPM_P1;HPM_P2
2022/03/24 03:20:24;;;;;;;45.38;13.68;;;;;;;;;;6246068;23;20569;-72
2022/03/24 03:22:51;;;;;;;27.23;13.45;;;;;;;;;;6222375;23;20351;-72
2022/03/24 03:25:17;;;;;;;30.50;14.13;;;;;;;;;;6225064;23;20085;-72
2022/03/24 03:27:43;;;;;;;39.75;15.00;;;;;;;;;;6226221;23;20384;-73
2022/03/24 03:30:09;;;;;;;32.40;13.50;;;;;;;;;;6251250;23;20070;-74
2022/03/24 03:32:35;;;;;;;26.33;12.65;;;;;;;;;;6228217;23;20012;-73
2022/03/24 03:35:01;;;;;;;30.27;12.93;;;;;;;;;;6253183;23;20008;-72
2022/03/24 03:37:29;;;;;;;29.77;14.43;;;;;;;;;;6253729;23;20042;-73
2022/03/24 03:39:55;;;;;;;33.40;16.60;;;;;;;;;;6254180;23;20008;-72
2022/03/24 03:42:21;;;;;;;43.40;17.77;;;;;;;;;;6252299;23;20012;-73
2022/03/24 03:44:47;;;;;;;45.72;19.70;;;;;;;;;;6249219;23;20469;-72
2022/03/24 03:47:13;;;;;;;65.28;28.42;;;;;;;;;;6250885;23;20035;-73
2022/03/24 03:49:39;;;;;;;76.15;27.38;;;;;;;;;;6224092;23;20015;-73
2022/03/24 03:52:05;;;;;;;73.35;27.45;;;;;;;;;;6200374;23;20111;-73
2022/03/24 03:54:31;;;;;;;78.22;31.63;;;;;;;;;;6249912;23;20015;-73
2022/03/24 03:56:58;;;;;;;54.75;19.27;;;;;;;;;;6249450;23;20138;-73
2022/03/24 03:59:23;;;;;;;56.50;19.08;;;;;;;;;;6249723;23;20008;-73
2022/03/24 04:01:49;;;;;;;44.22;18.70;;;;;;;;;;6249777;23;20395;-72
2022/03/24 04:04:15;;;;;;;45.05;18.45;;;;;;;;;;6251047;23;20374;-73
2022/03/24 04:06:41;;;;;;;39.80;17.85;;;;;;;;;;6252155;23;20027;-72
2022/03/24 04:09:07;;;;;;;52.58;19.02;;;;;;;;;;6249863;23;20014;-72
2022/03/24 04:11:35;;;;;;;42.03;20.05;;;;;;;;;;6249512;23;20556;-72
2022/03/24 04:14:01;;;;;;;46.70;20.00;;;;;;;;;;6247395;23;20012;-74
2022/03/24 04:16:27;;;;;;;46.55;21.05;;;;;;;;;;6244995;23;20065;-72
2022/03/24 04:18:53;;;;;;;43.15;20.33;;;;;;;;;;6219141;23;20456;-73
2022/03/24 04:21:19;;;;;;;42.25;17.42;;;;;;;;;;6220483;23;20035;-74
2022/03/24 04:23:46;;;;;;;47.90;20.80;;;;;;;;;;6226644;23;20353;-73
2022/03/24 04:26:11;;;;;;;43.28;20.23;;;;;;;;;;6226961;23;20570;-73
2022/03/24 04:28:37;;;;;;;47.80;19.50;;;;;;;;;;6226960;23;20116;-72
2022/03/24 04:31:03;;;;;;;41.42;18.63;;;;;;;;;;6223650;23;20111;-71
2022/03/24 04:33:30;;;;;;;53.25;20.67;;;;;;;;;;6216640;23;20035;-72
2022/03/24 04:35:58;;;;;;;55.75;23.58;;;;;;;;;;6214534;23;20043;-71
2022/03/24 04:38:24;;;;;;;54.88;20.33;;;;;;;;;;6218658;23;20019;-74
2022/03/24 04:40:50;;;;;;;52.88;22.30;;;;;;;;;;6254055;23;20016;-75
2022/03/24 04:43:16;;;;;;;45.08;20.75;;;;;;;;;;6233672;23;20013;-75
2022/03/24 04:45:42;;;;;;;32.13;15.77;;;;;;;;;;6198914;23;20502;-74
2022/03/24 04:48:08;;;;;;;42.58;18.70;;;;;;;;;;6221857;23;20338;-75
2022/03/24 04:50:34;;;;;;;31.30;14.93;;;;;;;;;;6220925;23;20029;-74
2022/03/24 04:53:00;;;;;;;53.55;19.77;;;;;;;;;;6223651;23;20024;-74
2022/03/24 04:55:26;;;;;;;41.45;17.55;;;;;;;;;;6223251;23;20039;-75
2022/03/24 04:57:52;;;;;;;44.95;19.58;;;;;;;;;;6222414;23;20017;-74
2022/03/24 05:00:19;;;;;;;45.55;20.58;;;;;;;;;;6221502;23;20013;-75
2022/03/24 05:02:45;;;;;;;34.95;16.52;;;;;;;;;;6222226;23;20044;-74
2022/03/24 05:05:11;;;;;;;47.05;19.65;;;;;;;;;;6224256;23;20043;-74
2022/03/24 05:07:37;;;;;;;48.30;19.92;;;;;;;;;;6219121;23;20016;-74
2022/03/24 05:10:04;;;;;;;41.45;19.30;;;;;;;;;;6217151;23;20013;-74
2022/03/24 05:12:30;;;;;;;52.10;19.30;;;;;;;;;;6220551;23;20523;-75
2022/03/24 05:14:56;;;;;;;42.10;19.60;;;;;;;;;;6222907;23;20036;-74
2022/03/24 05:17:22;;;;;;;52.92;18.98;;;;;;;;;;6214731;23;20017;-73
2022/03/24 05:19:48;;;;;;;46.85;19.55;;;;;;;;;;6212797;23;20013;-72
2022/03/24 05:22:15;;;;;;;48.67;22.80;;;;;;;;;;6238422;23;20024;-72
2022/03/24 05:24:41;;;;;;;46.53;22.73;;;;;;;;;;6190932;23;20058;-72
2022/03/24 05:27:07;;;;;;;45.03;21.05;;;;;;;;;;6241426;23;20022;-73
2022/03/24 05:29:33;;;;;;;56.53;22.77;;;;;;;;;;6242256;23;20395;-73
2022/03/24 05:31:59;;;;;;;53.13;22.77;;;;;;;;;;6243321;23;20016;-73
2022/03/24 05:34:25;;;;;;;49.47;23.15;;;;;;;;;;6242496;23;20009;-75
2022/03/24 05:36:51;;;;;;;52.45;23.02;;;;;;;;;;6216795;23;20023;-73
2022/03/24 05:39:17;;;;;;;49.00;23.13;;;;;;;;;;6216395;23;20012;-73
2022/03/24 05:41:44;;;;;;;50.88;24.48;;;;;;;;;;6242703;23;20452;-74
2022/03/24 05:44:10;;;;;;;56.15;26.17;;;;;;;;;;6242671;23;20054;-72
2022/03/24 05:46:36;;;;;;;48.88;24.77;;;;;;;;;;6215186;23;20008;-73
2022/03/24 05:49:03;;;;;;;56.67;24.33;;;;;;;;;;6214970;23;20107;-73
2022/03/24 05:51:58;;;;;;;51.63;25.52;;;;;;;;;;6201506;23;20115;-72
2022/03/24 05:54:24;;;;;;;51.00;26.30;;;;;;;;;;6241573;23;20058;-74
2022/03/24 05:56:50;;;;;;;49.30;22.65;;;;;;;;;;6241819;23;20004;-73
2022/03/24 05:59:16;;;;;;;56.15;29.70;;;;;;;;;;6190165;23;20077;-74
2022/03/24 06:01:42;;;;;;;59.58;26.42;;;;;;;;;;6241249;23;20019;-66
2022/03/24 06:04:08;;;;;;;62.63;29.05;;;;;;;;;;6214331;23;20018;-67
2022/03/24 06:06:34;;;;;;;67.60;30.98;;;;;;;;;;6240318;23;20107;-66
2022/03/24 06:09:04;;;;;;;50.70;26.50;;;;;;;;;;6214597;23;20023;-67
2022/03/24 06:11:30;;;;;;;66.82;30.98;;;;;;;;;;6188168;23;20099;-68
2022/03/24 06:13:57;;;;;;;60.08;29.77;;;;;;;;;;6241063;23;20032;-68
2022/03/24 06:16:23;;;;;;;68.00;30.10;;;;;;;;;;6240417;23;20019;-67
2022/03/24 06:18:49;;;;;;;55.58;30.73;;;;;;;;;;6213962;23;20062;-66
2022/03/24 06:21:15;;;;;;;61.17;32.15;;;;;;;;;;6239895;23;20460;-67
2022/03/24 06:23:41;;;;;;;64.88;32.38;;;;;;;;;;6239921;23;20031;-65
2022/03/24 06:26:08;;;;;;;53.40;29.80;;;;;;;;;;6240989;23;20472;-68
2022/03/24 06:28:34;;;;;;;73.85;34.25;;;;;;;;;;6239950;23;20011;-66
2022/03/24 06:31:00;;;;;;;66.57;34.58;;;;;;;;;;6213577;23;20024;-67
2022/03/24 06:33:26;;;;;;;73.22;34.97;;;;;;;;;;6239868;23;20035;-66
2022/03/24 06:35:55;;;;;;;63.47;34.38;;;;;;;;;;6214018;23;20439;-67
2022/03/24 06:38:21;;;;;;;72.43;35.40;;;;;;;;;;6216881;23;20369;-67
2022/03/24 06:40:47;;;;;;;77.40;36.58;;;;;;;;;;6240640;23;20019;-66
2022/03/24 06:43:13;;;;;;;65.05;31.65;;;;;;;;;;6240573;23;20187;-65
2022/03/24 06:45:38;;;;;;;70.65;34.47;;;;;;;;;;6213415;23;20638;-66
2022/03/24 06:48:07;;;;;;;69.82;34.22;;;;;;;;;;6213850;23;20008;-66
2022/03/24 06:50:34;;;;;;;62.05;33.10;;;;;;;;;;6213083;23;20016;-66
2022/03/24 06:53:00;;;;;;;71.97;33.90;;;;;;;;;;6213730;23;20058;-66
2022/03/24 06:55:26;;;;;;;64.93;34.50;;;;;;;;;;6238403;23;20104;-65
2022/03/24 06:57:51;;;;;;;70.13;35.72;;;;;;;;;;6213965;23;20362;-65
2022/03/24 07:00:17;;;;;;;68.60;33.65;;;;;;;;;;6240446;23;20019;-66
2022/03/24 07:02:43;;;;;;;68.95;34.35;;;;;;;;;;6240064;23;20039;-66
2022/03/24 07:05:11;;;;;;;62.70;33.90;;;;;;;;;;6239632;23;20325;-66
2022/03/24 07:07:37;;;;;;;61.83;32.13;;;;;;;;;;6239986;23;20434;-70
2022/03/24 07:10:03;;;;;;;73.78;33.72;;;;;;;;;;6237899;23;20012;-71
2022/03/24 07:12:29;;;;;;;56.78;32.13;;;;;;;;;;6238077;23;20067;-70
2022/03/24 07:14:54;;;;;;;56.08;28.35;;;;;;;;;;6239604;23;20035;-69
2022/03/24 07:17:21;;;;;;;53.28;30.58;;;;;;;;;;6239924;23;20016;-70
2022/03/24 07:19:47;;;;;;;63.20;30.95;;;;;;;;;;6239137;23;20392;-70
2022/03/24 07:22:13;;;;;;;75.32;31.40;;;;;;;;;;6239305;23;20034;-69
2022/03/24 07:24:39;;;;;;;64.30;32.38;;;;;;;;;;6239180;23;20093;-70
2022/03/24 07:27:06;;;;;;;61.90;31.83;;;;;;;;;;6213554;23;20012;-68
2022/03/24 07:29:31;;;;;;;58.67;30.95;;;;;;;;;;6213185;23;20015;-70
2022/03/24 07:31:59;;;;;;;54.35;31.50;;;;;;;;;;6211996;23;20039;-69
2022/03/24 07:34:25;;;;;;;52.53;29.88;;;;;;;;;;6239584;23;20388;-70
2022/03/24 07:36:51;;;;;;;59.50;28.05;;;;;;;;;;6238945;23;20532;-68
2022/03/24 07:39:17;;;;;;;53.55;28.98;;;;;;;;;;6240519;23;20031;-70
2022/03/24 07:41:43;;;;;;;50.72;28.05;;;;;;;;;;6242322;23;20027;-70
2022/03/24 07:44:09;;;;;;;50.45;25.05;;;;;;;;;;6240800;23;20370;-69
2022/03/24 07:46:35;;;;;;;47.58;24.75;;;;;;;;;;6241206;23;20392;-70
2022/03/24 07:49:01;;;;;;;44.55;24.58;;;;;;;;;;6242757;23;20456;-70
2022/03/24 07:51:29;;;;;;;48.63;26.73;;;;;;;;;;6216094;23;20120;-70
2022/03/24 07:53:56;;;;;;;50.92;26.40;;;;;;;;;;6242039;23;20023;-70
2022/03/24 07:56:24;;;;;;;36.05;24.90;;;;;;;;;;6242901;23;20031;-71
2022/03/24 07:58:51;;;;;;;38.00;22.70;;;;;;;;;;6243975;23;20016;-72
2022/03/24 08:01:23;;;;;;;37.95;21.50;;;;;;;;;;6243331;23;20050;-70
2022/03/24 08:03:51;;;;;;;31.50;20.95;;;;;;;;;;6243522;23;20352;-68
2022/03/24 08:06:17;;;;;;;31.75;20.10;;;;;;;;;;6243467;23;20016;-69
2022/03/24 08:08:43;;;;;;;36.45;20.33;;;;;;;;;;6243438;23;20484;-69
2022/03/24 08:11:08;;;;;;;35.67;18.50;;;;;;;;;;6243459;23;20070;-70
2022/03/24 08:13:35;;;;;;;24.77;17.10;;;;;;;;;;6243233;23;20436;-69
2022/03/24 08:16:00;;;;;;;22.85;15.30;;;;;;;;;;6243685;23;20391;-68
2022/03/24 08:18:26;;;;;;;29.45;15.75;;;;;;;;;;6243411;23;20011;-70
2022/03/24 08:20:52;;;;;;;35.47;16.80;;;;;;;;;;6211095;23;20025;-71
2022/03/24 08:23:18;;;;;;;22.40;15.88;;;;;;;;;;6213219;23;20457;-69
2022/03/24 08:25:44;;;;;;;25.00;14.93;;;;;;;;;;6212651;23;20012;-71
2022/03/24 08:28:10;;;;;;;28.50;14.45;;;;;;;;;;6211822;23;20032;-70
2022/03/24 08:30:36;;;;;;;25.83;14.13;;;;;;;;;;6213090;23;20017;-70
2022/03/24 08:33:02;;;;;;;21.17;14.00;;;;;;;;;;6211730;23;20005;-70
2022/03/24 08:35:31;;;;;;;19.35;14.60;;;;;;;;;;6212963;23;20027;-70
2022/03/24 08:37:57;;;;;;;25.75;13.35;;;;;;;;;;6213085;23;20012;-70
2022/03/24 08:40:23;;;;;;;11.85;8.48;;;;;;;;;;6213216;23;20016;-69
2022/03/24 08:42:49;;;;;;;13.20;7.85;;;;;;;;;;6213125;23;20047;-70
2022/03/24 08:45:15;;;;;;;9.77;7.40;;;;;;;;;;6213044;23;20013;-70
2022/03/24 08:47:41;;;;;;;21.55;9.70;;;;;;;;;;6211225;23;20520;-70
2022/03/24 08:50:07;;;;;;;13.00;8.25;;;;;;;;;;6212941;23;20040;-70
2022/03/24 08:52:35;;;;;;;16.88;13.15;;;;;;;;;;6212559;23;20012;-70
2022/03/24 08:55:01;;;;;;;20.85;12.95;;;;;;;;;;6211354;23;20039;-70
2022/03/24 08:57:29;;;;;;;22.70;11.52;;;;;;;;;;6212665;23;20020;-71
2022/03/24 08:59:55;;;;;;;6.47;5.82;;;;;;;;;;6186244;23;20193;-70
2022/03/24 09:02:21;;;;;;;8.82;6.70;;;;;;;;;;6212563;23;20035;-69
2022/03/24 09:04:50;;;;;;;8.48;5.90;;;;;;;;;;6211055;23;20036;-71
2022/03/24 09:07:16;;;;;;;6.57;5.72;;;;;;;;;;6212928;23;20023;-70
2022/03/24 09:09:42;;;;;;;8.20;6.15;;;;;;;;;;6186172;23;20038;-70
2022/03/24 09:12:12;;;;;;;6.88;6.00;;;;;;;;;;6211097;23;20024;-68
2022/03/24 09:14:38;;;;;;;8.77;6.45;;;;;;;;;;6210853;23;20009;-70
2022/03/24 09:17:04;;;;;;;10.25;5.38;;;;;;;;;;6212816;23;20020;-70
2022/03/24 09:19:30;;;;;;;5.60;5.10;;;;;;;;;;6212506;23;20012;-70
2022/03/24 09:21:55;;;;;;;7.22;5.18;;;;;;;;;;6236513;23;20110;-70
2022/03/24 09:24:21;;;;;;;6.22;4.80;;;;;;;;;;6242727;23;20036;-70
2022/03/24 09:26:47;;;;;;;4.68;3.90;;;;;;;;;;6213361;23;20066;-70
2022/03/24 09:29:14;;;;;;;4.55;4.15;;;;;;;;;;6241551;23;20020;-70
2022/03/24 09:31:40;;;;;;;4.70;4.20;;;;;;;;;;6242760;23;20012;-71
2022/03/24 09:34:08;;;;;;;5.50;4.15;;;;;;;;;;6243365;23;20016;-70
2022/03/24 09:36:35;;;;;;;6.60;4.00;;;;;;;;;;6242619;23;20360;-69
2022/03/24 09:39:00;;;;;;;3.97;3.60;;;;;;;;;;6243178;23;20039;-69
2022/03/24 09:41:27;;;;;;;5.40;3.78;;;;;;;;;;6215979;23;20026;-70
2022/03/24 09:43:53;;;;;;;3.63;3.33;;;;;;;;;;6241142;23;20098;-70
2022/03/24 09:46:19;;;;;;;3.80;3.50;;;;;;;;;;6216358;23;20055;-69
2022/03/24 09:48:45;;;;;;;6.32;4.00;;;;;;;;;;6242923;23;20035;-70
2022/03/24 09:51:11;;;;;;;5.07;4.00;;;;;;;;;;6166020;23;20480;-69
2022/03/24 09:53:39;;;;;;;8.85;3.78;;;;;;;;;;6241059;23;20270;-68
2022/03/24 09:56:05;;;;;;;3.75;3.20;;;;;;;;;;6190608;23;20046;-70
2022/03/24 09:58:31;;;;;;;4.57;3.30;;;;;;;;;;6191068;23;20015;-70
2022/03/24 10:00:57;;;;;;;3.72;3.25;;;;;;;;;;6242291;23;20098;-69
2022/03/24 10:03:23;;;;;;;3.92;3.63;;;;;;;;;;6215964;23;20015;-69
2022/03/24 10:06:09;;;;;;;7.13;3.10;;;;;;;;;;6215500;23;20364;-69
2022/03/24 10:08:35;;;;;;;4.60;4.00;;;;;;;;;;6240849;23;20022;-69
2022/03/24 10:11:04;;;;;;;6.10;4.70;;;;;;;;;;6215761;23;20008;-70
2022/03/24 10:13:43;;;;;;;5.15;3.47;;;;;;;;;;6241079;23;20012;-70
2022/03/24 10:16:09;;;;;;;5.78;3.65;;;;;;;;;;6242882;23;20016;-70
2022/03/24 10:18:35;;;;;;;3.83;3.53;;;;;;;;;;6191023;23;20522;-69
2022/03/24 10:21:03;;;;;;;5.25;3.25;;;;;;;;;;6215468;23;20020;-70
2022/03/24 10:23:33;;;;;;;8.13;3.90;;;;;;;;;;6217923;23;20015;-69
2022/03/24 10:26:02;;;;;;;3.95;3.65;;;;;;;;;;6218436;23;20016;-70
2022/03/24 10:28:28;;;;;;;4.35;3.95;;;;;;;;;;6244838;23;20020;-69
2022/03/24 10:30:55;;;;;;;3.22;3.03;;;;;;;;;;6217344;23;20023;-69
2022/03/24 10:33:34;;;;;;;4.10;3.63;;;;;;;;;;6217431;23;20419;-69
2022/03/24 10:36:19;;;;;;;5.15;3.83;;;;;;;;;;6216126;23;20107;-69
2022/03/24 10:38:49;;;;;;;3.10;2.88;;;;;;;;;;6215327;23;20012;-70
2022/03/24 10:41:18;;;;;;;4.65;3.10;;;;;;;;;;6242207;23;20024;-70
2022/03/24 10:43:44;;;;;;;4.00;3.70;;;;;;;;;;6242094;23;20012;-68
2022/03/24 10:46:14;;;;;;;3.70;3.40;;;;;;;;;;6242372;23;20016;-69
2022/03/24 10:48:40;;;;;;;3.70;3.40;;;;;;;;;;6215811;23;20011;-70
2022/03/24 10:51:06;;;;;;;4.05;3.65;;;;;;;;;;6242224;23;20016;-69
2022/03/24 10:53:41;;;;;;;2.75;2.63;;;;;;;;;;6242375;23;20012;-69
2022/03/24 10:56:11;;;;;;;4.10;3.75;;;;;;;;;;6190349;23;20047;-73
2022/03/24 10:58:39;;;;;;;5.43;3.35;;;;;;;;;;6215325;23;20008;-69
2022/03/24 11:01:08;;;;;;;5.30;4.00;;;;;;;;;;6215385;23;20103;-69
2022/03/24 11:03:37;;;;;;;6.00;3.55;;;;;;;;;;6216613;23;20008;-69
2022/03/24 11:06:07;;;;;;;5.25;3.40;;;;;;;;;;6242287;23;20016;-70
2022/03/24 11:08:34;;;;;;;4.10;3.83;;;;;;;;;;6240917;23;20019;-70
2022/03/24 11:11:00;;;;;;;4.15;3.75;;;;;;;;;;6242230;23;20059;-69
2022/03/24 11:13:27;;;;;;;4.85;4.28;;;;;;;;;;6242707;23;20012;-69
2022/03/24 11:15:53;;;;;;;8.32;3.38;;;;;;;;;;6214992;23;20623;-69
2022/03/24 11:18:21;;;;;;;4.18;3.78;;;;;;;;;;6242090;23;20012;-69
2022/03/24 11:20:49;;;;;;;5.18;3.00;;;;;;;;;;6209522;23;20328;-69
2022/03/24 11:23:24;;;;;;;3.60;3.30;;;;;;;;;;6185114;23;20051;-69
2022/03/24 11:25:56;;;;;;;3.47;3.20;;;;;;;;;;6211233;23;20138;-69
2022/03/24 11:28:21;;;;;;;4.57;3.80;;;;;;;;;;6185360;23;20095;-69
2022/03/24 11:30:47;;;;;;;4.45;2.80;;;;;;;;;;6210966;23;20048;-68
2022/03/24 11:33:14;;;;;;;3.63;3.33;;;;;;;;;;6210251;23;20009;-70
2022/03/24 11:35:40;;;;;;;3.90;3.60;;;;;;;;;;6184948;23;20016;-70
2022/03/24 11:38:06;;;;;;;3.80;3.50;;;;;;;;;;6185506;23;20472;-69
2022/03/24 11:40:35;;;;;;;4.40;3.40;;;;;;;;;;6209757;23;20048;-69
2022/03/24 11:43:08;;;;;;;3.92;3.20;;;;;;;;;;6212077;23;20020;-69
2022/03/24 11:45:49;;;;;;;5.03;3.60;;;;;;;;;;6160016;23;20017;-69
2022/03/24 11:48:16;;;;;;;4.15;3.75;;;;;;;;;;6209906;23;20012;-69
2022/03/24 11:50:48;;;;;;;4.05;3.75;;;;;;;;;;6209570;23;20022;-70
2022/03/24 11:53:29;;;;;;;3.90;3.60;;;;;;;;;;6211524;23;20024;-69
2022/03/24 11:56:02;;;;;;;6.75;4.13;;;;;;;;;;6211230;23;20040;-69
2022/03/24 11:58:32;;;;;;;4.82;4.00;;;;;;;;;;6209757;23;20059;-69
2022/03/24 12:01:17;;;;;;;5.97;4.47;;;;;;;;;;6184486;23;20077;-69
2022/03/24 12:03:56;;;;;;;5.88;4.85;;;;;;;;;;6211310;23;20463;-69
2022/03/24 12:06:41;;;;;;;5.13;4.40;;;;;;;;;;6211473;23;20016;-69
2022/03/24 12:09:17;;;;;;;5.07;4.53;;;;;;;;;;6160174;23;20009;-69
2022/03/24 12:12:06;;;;;;;6.18;5.57;;;;;;;;;;6212031;23;20071;-69
2022/03/24 12:14:32;;;;;;;4.78;4.22;;;;;;;;;;6203841;23;20024;-70
2022/03/24 12:17:03;;;;;;;5.07;4.57;;;;;;;;;;6184655;23;20013;-68
2022/03/24 12:19:35;;;;;;;19.77;4.53;;;;;;;;;;6211685;23;20538;-69
2022/03/24 12:22:20;;;;;;;5.35;4.53;;;;;;;;;;6235526;23;20023;-69
2022/03/24 12:24:46;;;;;;;4.53;4.13;;;;;;;;;;6241557;23;20016;-69
2022/03/24 12:27:14;;;;;;;6.82;4.28;;;;;;;;;;6216313;23;20014;-69
2022/03/24 12:29:39;;;;;;;5.10;4.60;;;;;;;;;;6243160;23;20074;-69
2022/03/24 12:32:06;;;;;;;9.80;4.97;;;;;;;;;;6243449;23;20008;-68
2022/03/24 12:34:35;;;;;;;4.85;4.45;;;;;;;;;;6191515;23;20012;-69
2022/03/24 12:37:04;;;;;;;5.00;4.50;;;;;;;;;;6242816;23;20008;-69
2022/03/24 12:39:30;;;;;;;7.82;4.90;;;;;;;;;;6243270;23;20012;-69
2022/03/24 12:42:16;;;;;;;4.43;4.05;;;;;;;;;;6241149;23;20028;-69
2022/03/24 12:44:52;;;;;;;6.50;4.72;;;;;;;;;;6216521;23;20012;-70
2022/03/24 12:47:30;;;;;;;6.60;5.43;;;;;;;;;;6243402;23;20035;-70
2022/03/24 12:49:57;;;;;;;7.70;4.25;;;;;;;;;;6243100;23;20083;-70
2022/03/24 12:52:26;;;;;;;10.88;5.00;;;;;;;;;;6216696;23;20046;-69
2022/03/24 12:54:53;;;;;;;6.45;5.10;;;;;;;;;;6242756;23;20383;-69
2022/03/24 12:57:19;;;;;;;5.38;4.88;;;;;;;;;;6216438;23;20149;-69
2022/03/24 12:59:45;;;;;;;12.13;4.93;;;;;;;;;;6190958;23;20043;-69
2022/03/24 13:02:11;;;;;;;7.22;4.97;;;;;;;;;;6191296;23;20020;-69
2022/03/24 13:04:38;;;;;;;7.65;5.28;;;;;;;;;;6243971;23;20022;-69
2022/03/24 13:07:04;;;;;;;5.88;4.72;;;;;;;;;;6217738;23;20019;-70
2022/03/24 13:09:30;;;;;;;5.78;5.20;;;;;;;;;;6243581;23;20484;-70
2022/03/24 13:11:57;;;;;;;6.68;5.40;;;;;;;;;;6243537;23;20027;-69
2022/03/24 13:14:23;;;;;;;5.80;5.20;;;;;;;;;;6243096;23;20172;-69
2022/03/24 13:17:02;;;;;;;5.38;4.88;;;;;;;;;;6215951;23;20074;-69
2022/03/24 13:19:28;;;;;;;7.25;5.20;;;;;;;;;;6216102;23;20099;-69
2022/03/24 13:21:54;;;;;;;7.53;5.18;;;;;;;;;;6242143;23;20113;-69
2022/03/24 13:24:21;;;;;;;5.13;4.60;;;;;;;;;;6241119;23;20038;-69
2022/03/24 13:27:02;;;;;;;6.03;5.00;;;;;;;;;;6242485;23;20449;-69
2022/03/24 13:29:28;;;;;;;;;;;;;;;;;;6243662;23;20015;-69
2022/03/24 13:31:54;;;;;;;8.20;4.97;;;;;;;;;;6242760;23;20241;-69
2022/03/24 13:34:20;;;;;;;4.78;4.38;;;;;;;;;;6216219;23;20103;-69
2022/03/24 13:36:46;;;;;;;5.13;4.72;;;;;;;;;;6242579;23;20361;-69
2022/03/24 13:39:12;;;;;;;9.65;4.60;;;;;;;;;;6242869;23;20016;-69
2022/03/24 13:41:38;;;;;;;6.00;4.38;;;;;;;;;;6190484;23;20024;-70
2022/03/24 13:44:05;;;;;;;9.30;5.00;;;;;;;;;;6215820;23;20444;-70
2022/03/24 13:46:32;;;;;;;6.03;5.00;;;;;;;;;;6191910;23;20035;-70
2022/03/24 13:48:57;;;;;;;6.38;4.53;;;;;;;;;;6190538;23;20464;-70
2022/03/24 13:51:25;;;;;;;16.33;5.45;;;;;;;;;;6242592;23;20016;-70
2022/03/24 13:53:51;;;;;;;6.50;4.88;;;;;;;;;;6189207;23;20073;-69
2022/03/24 13:56:17;;;;;;;7.65;4.53;;;;;;;;;;6242622;23;20023;-70
2022/03/24 13:58:43;;;;;;;9.23;5.13;;;;;;;;;;6216020;23;20012;-69
2022/03/24 14:01:13;;;;;;;4.95;4.53;;;;;;;;;;6235940;23;21159;-69
2022/03/24 14:03:39;;;;;;;6.50;5.05;;;;;;;;;;6213999;23;20262;-69
2022/03/24 14:06:09;;;;;;;5.63;4.85;;;;;;;;;;6215054;23;20019;-69
2022/03/24 14:08:42;;;;;;;6.28;5.20;;;;;;;;;;6190616;23;20468;-69
2022/03/24 14:11:09;;;;;;;6.93;4.57;;;;;;;;;;6215548;23;20031;-69
2022/03/24 14:13:36;;;;;;;8.10;5.10;;;;;;;;;;6242099;23;20074;-70
2022/03/24 14:16:16;;;;;;;11.07;5.13;;;;;;;;;;6214930;23;20015;-69
2022/03/24 14:19:01;;;;;;;5.33;4.83;;;;;;;;;;6242628;23;20016;-69
2022/03/24 14:21:27;;;;;;;6.75;5.38;;;;;;;;;;6241716;23;20023;-69
2022/03/24 14:23:53;;;;;;;7.55;5.13;;;;;;;;;;6241676;23;20452;-69
2022/03/24 14:26:19;;;;;;;7.53;4.78;;;;;;;;;;6215043;23;20077;-69
2022/03/24 14:28:45;;;;;;;6.80;5.40;;;;;;;;;;6241655;23;20008;-69
2022/03/24 14:31:17;;;;;;;5.75;5.00;;;;;;;;;;6240172;23;20586;-69
2022/03/24 14:33:44;;;;;;;10.85;4.90;;;;;;;;;;6215114;23;20087;-69
2022/03/24 14:36:10;;;;;;;7.28;5.45;;;;;;;;;;6241458;23;20008;-69
2022/03/24 14:38:36;;;;;;;10.20;4.35;;;;;;;;;;6190538;23;20115;-69
2022/03/24 14:41:02;;;;;;;7.95;4.85;;;;;;;;;;6189258;23;20560;-69
2022/03/24 14:43:29;;;;;;;6.20;5.55;;;;;;;;;;6190846;23;20020;-69
2022/03/24 14:45:55;;;;;;;11.10;6.13;;;;;;;;;;6241036;23;20428;-70
2022/03/24 14:48:21;;;;;;;9.00;4.80;;;;;;;;;;6215279;23;20066;-69
2022/03/24 14:50:48;;;;;;;5.78;5.20;;;;;;;;;;6214742;23;20043;-69
2022/03/24 14:53:14;;;;;;;5.13;4.72;;;;;;;;;;6241488;23;20008;-70
2022/03/24 14:55:40;;;;;;;6.38;5.28;;;;;;;;;;6241349;23;20095;-70
2022/03/24 14:58:06;;;;;;;8.60;5.32;;;;;;;;;;6239905;23;20074;-70
2022/03/24 15:00:32;;;;;;;6.00;5.25;;;;;;;;;;6237573;23;20123;-69
2022/03/24 15:02:58;;;;;;;7.28;5.20;;;;;;;;;;6241359;23;20052;-69
2022/03/24 15:05:24;;;;;;;5.07;4.68;;;;;;;;;;6239629;23;20023;-69
2022/03/24 15:07:50;;;;;;;8.15;4.63;;;;;;;;;;6241966;23;20016;-70
2022/03/24 15:10:16;;;;;;;8.43;4.78;;;;;;;;;;6241799;23;20011;-68
2022/03/24 15:12:42;;;;;;;6.95;5.60;;;;;;;;;;6241617;23;20004;-69
2022/03/24 15:17:56;;;;;;;10.65;5.60;;;;;;;;;;6218102;23;20423;-69
2022/03/24 15:20:22;;;;;;;10.50;5.45;;;;;;;;;;6214055;23;20024;-69
2022/03/24 15:22:48;;;;;;;5.80;5.20;;;;;;;;;;6214992;23;20024;-70
2022/03/24 15:25:14;;;;;;;15.43;6.15;;;;;;;;;;6190025;23;20359;-70
2022/03/24 15:27:40;;;;;;;9.38;5.85;;;;;;;;;;6214649;23;20464;-71
2022/03/24 15:30:06;;;;;;;6.45;5.75;;;;;;;;;;6241154;23;20115;-70
2022/03/24 15:32:32;;;;;;;5.32;4.82;;;;;;;;;;6238433;23;20337;-70
2022/03/24 15:34:58;;;;;;;6.28;5.22;;;;;;;;;;6243406;23;20079;-70
2022/03/24 15:37:25;;;;;;;13.85;5.57;;;;;;;;;;6240020;23;20019;-71
2022/03/24 15:39:51;;;;;;;8.07;5.40;;;;;;;;;;6240867;23;20012;-72
2022/03/24 15:42:17;;;;;;;9.95;6.47;;;;;;;;;;6217229;23;20049;-71
2022/03/24 15:44:43;;;;;;;10.27;8.27;;;;;;;;;;6243092;23;20448;-71
2022/03/24 15:47:08;;;;;;;7.07;6.35;;;;;;;;;;6215340;23;20461;-71
2022/03/24 15:49:34;;;;;;;9.45;6.22;;;;;;;;;;6216832;23;20091;-69
2022/03/24 15:52:00;;;;;;;7.18;5.45;;;;;;;;;;6217217;23;20015;-70
2022/03/24 15:54:26;;;;;;;10.15;7.53;;;;;;;;;;6241143;23;20100;-70
2022/03/24 15:56:52;;;;;;;10.75;8.23;;;;;;;;;;6241238;23;20455;-70
2022/03/24 15:59:18;;;;;;;13.85;8.27;;;;;;;;;;6241524;23;20028;-70
2022/03/24 16:01:45;;;;;;;13.68;7.43;;;;;;;;;;6191276;23;20069;-70
2022/03/24 16:04:11;;;;;;;8.27;4.60;;;;;;;;;;6235704;23;20434;-69
2022/03/24 16:06:37;;;;;;;17.10;9.35;;;;;;;;;;6241808;23;20023;-72
2022/03/24 16:09:03;;;;;;;20.95;12.85;;;;;;;;;;6164682;23;20016;-69
2022/03/24 16:11:29;;;;;;;31.15;13.43;;;;;;;;;;6241311;23;20082;-71
2022/03/24 16:13:55;;;;;;;26.38;11.93;;;;;;;;;;6215146;23;20016;-71
2022/03/24 16:16:20;;;;;;;21.25;10.63;;;;;;;;;;6213271;23;20016;-69
2022/03/24 16:18:47;;;;;;;19.30;10.45;;;;;;;;;;6243098;23;20019;-72
2022/03/24 16:21:12;;;;;;;18.08;9.40;;;;;;;;;;6210229;23;20086;-71
2022/03/24 16:23:38;;;;;;;10.38;5.40;;;;;;;;;;6210090;23;20308;-71
2022/03/24 16:26:04;;;;;;;8.35;6.55;;;;;;;;;;6212232;23;20364;-71
2022/03/24 16:28:30;;;;;;;8.80;4.80;;;;;;;;;;6185757;23;20032;-71
2022/03/24 16:30:56;;;;;;;10.05;5.68;;;;;;;;;;6186406;23;20441;-71
2022/03/24 16:33:22;;;;;;;6.88;5.65;;;;;;;;;;6186039;23;20043;-71
2022/03/24 16:35:49;;;;;;;7.05;4.80;;;;;;;;;;6185300;23;20012;-70
2022/03/24 16:38:15;;;;;;;11.50;6.30;;;;;;;;;;6212339;23;20514;-71
2022/03/24 16:40:41;;;;;;;8.10;6.57;;;;;;;;;;6209290;23;20095;-72
2022/03/24 16:43:08;;;;;;;11.50;6.72;;;;;;;;;;6155199;23;20103;-72
2022/03/24 16:45:34;;;;;;;15.68;8.60;;;;;;;;;;6211279;23;20012;-72
2022/03/24 16:48:00;;;;;;;15.20;9.20;;;;;;;;;;6209270;23;20021;-73
2022/03/24 16:50:26;;;;;;;17.33;9.55;;;;;;;;;;6184466;23;20017;-72
2022/03/24 16:52:52;;;;;;;23.75;10.95;;;;;;;;;;6182625;23;20012;-70
2022/03/24 16:55:18;;;;;;;16.92;8.82;;;;;;;;;;6181284;23;20075;-69
2022/03/24 16:57:44;;;;;;;10.90;8.38;;;;;;;;;;6184010;23;20384;-70
2022/03/24 17:00:10;;;;;;;18.17;9.23;;;;;;;;;;6210419;23;20009;-70
2022/03/24 17:02:36;;;;;;;11.18;8.65;;;;;;;;;;6210117;23;20025;-71
2022/03/24 17:05:03;;;;;;;24.00;10.23;;;;;;;;;;6209953;23;20009;-71
2022/03/24 17:07:29;;;;;;;21.67;10.93;;;;;;;;;;6209775;23;20017;-69
2022/03/24 17:09:55;;;;;;;16.52;9.50;;;;;;;;;;6183602;23;20043;-71
2022/03/24 17:12:21;;;;;;;16.52;9.80;;;;;;;;;;6157720;23;20024;-70
2022/03/24 17:14:48;;;;;;;13.80;8.95;;;;;;;;;;6208816;23;20008;-67
2022/03/24 17:17:13;;;;;;;14.23;9.23;;;;;;;;;;6208162;23;20089;-66
2022/03/24 17:19:40;;;;;;;18.77;9.15;;;;;;;;;;6209937;23;20036;-67
2022/03/24 17:22:06;;;;;;;20.17;10.50;;;;;;;;;;6235223;23;20372;-67
2022/03/24 17:24:32;;;;;;;18.50;10.73;;;;;;;;;;6240333;23;20013;-67
2022/03/24 17:26:58;;;;;;;17.67;9.77;;;;;;;;;;6239485;23;20023;-67
2022/03/24 17:29:25;;;;;;;20.55;10.25;;;;;;;;;;6240366;23;20035;-67
2022/03/24 17:31:51;;;;;;;21.35;11.82;;;;;;;;;;6239849;23;20058;-67
2022/03/24 17:34:17;;;;;;;34.15;18.38;;;;;;;;;;6241479;23;20035;-67
2022/03/24 17:36:43;;;;;;;24.90;12.98;;;;;;;;;;6241685;23;20034;-66
2022/03/24 17:39:09;;;;;;;35.78;18.23;;;;;;;;;;6215301;23;20026;-68
2022/03/24 17:41:35;;;;;;;26.00;11.93;;;;;;;;;;6214695;23;20030;-67
2022/03/24 17:44:02;;;;;;;41.70;13.80;;;;;;;;;;6189269;23;20094;-68
2022/03/24 17:46:28;;;;;;;34.45;11.48;;;;;;;;;;6241138;23;20447;-66
2022/03/24 17:48:54;;;;;;;29.95;11.07;;;;;;;;;;6240929;23;20008;-66
2022/03/24 17:51:20;;;;;;;20.27;9.85;;;;;;;;;;6239605;23;20047;-67
2022/03/24 17:53:46;;;;;;;14.88;8.73;;;;;;;;;;6241639;23;20012;-67